sensor_id;sensor_type;location;lat;lon;timestamp;temperature;humidity
54518;DHT22;40423;53.176;6.002;2023-09-08T00:01:49;19.80;99.90
54518;DHT22;40423;53.176;6.002;2023-09-08T00:04:15;19.70;99.90
54518;DHT22;40423;53.176;6.002;2023-09-08T00:06:41;19.70;99.90
54518;DHT22;40423;53.176;6.002;2023-09-08T00:09:07;19.60;99.90
54518;DHT22;40423;53.176;6.002;2023-09-08T00:11:33;19.60;99.90
54518;DHT22;40423;53.176;6.002;2023-09-08T00:13:59;19.60;99.90
54518;DHT22;40423;53.176;6.002;2023-09-08T00:16:25;19.50;99.90
54518;DHT22;40423;53.176;6.002;2023-09-08T00:18:50;19.50;99.90
54518;DHT22;40423;53.176;6.002;2023-09-08T00:21:16;19.50;99.90
54518;DHT22;40423;53.176;6.002;2023-09-08T00:23:42;19.50;99.90
54518;DHT22;40423;53.176;6.002;2023-09-08T00:26:07;19.40;99.90
54518;DHT22;40423;53.176;6.002;2023-09-08T00:28:33;19.40;99.90
54518;DHT22;40423;53.176;6.002;2023-09-08T00:30:59;19.40;99.90
54518;DHT22;40423;53.176;6.002;2023-09-08T00:33:27;19.40;99.90
54518;DHT22;40423;53.176;6.002;2023-09-08T00:35:53;19.40;99.90
54518;DHT22;40423;53.176;6.002;2023-09-08T00:38:22;19.30;99.90
54518;DHT22;40423;53.176;6.002;2023-09-08T00:40:48;19.30;99.90
54518;DHT22;40423;53.176;6.002;2023-09-08T00:43:13;19.30;99.90
54518;DHT22;40423;53.176;6.002;2023-09-08T00:45:41;19.20;99.90
54518;DHT22;40423;53.176;6.002;2023-09-08T00:48:07;19.20;99.90
54518;DHT22;40423;53.176;6.002;2023-09-08T00:50:35;19.20;99.90
54518;DHT22;40423;53.176;6.002;2023-09-08T00:53:01;19.20;99.90
54518;DHT22;40423;53.176;6.002;2023-09-08T00:55:27;19.20;99.90
54518;DHT22;40423;53.176;6.002;2023-09-08T00:57:53;19.20;99.90
54518;DHT22;40423;53.176;6.002;2023-09-08T01:00:22;19.20;99.90
54518;DHT22;40423;53.176;6.002;2023-09-08T01:02:48;19.10;99.90
54518;DHT22;40423;53.176;6.002;2023-09-08T01:05:14;19.10;99.90
54518;DHT22;40423;53.176;6.002;2023-09-08T01:07:40;19.10;99.90
54518;DHT22;40423;53.176;6.002;2023-09-08T01:10:07;19.10;99.90
54518;DHT22;40423;53.176;6.002;2023-09-08T01:12:34;19.10;99.90
54518;DHT22;40423;53.176;6.002;2023-09-08T01:15:01;19.10;99.90
54518;DHT22;40423;53.176;6.002;2023-09-08T01:17:27;19.10;99.90
54518;DHT22;40423;53.176;6.002;2023-09-08T01:19:56;19.00;99.90
54518;DHT22;40423;53.176;6.002;2023-09-08T01:27:43;19.00;99.90
54518;DHT22;40423;53.176;6.002;2023-09-08T01:30:09;19.00;99.90
54518;DHT22;40423;53.176;6.002;2023-09-08T01:32:36;19.00;99.90
54518;DHT22;40423;53.176;6.002;2023-09-08T01:35:02;19.00;99.90
54518;DHT22;40423;53.176;6.002;2023-09-08T01:37:28;19.00;99.90
54518;DHT22;40423;53.176;6.002;2023-09-08T01:39:53;18.90;99.90
54518;DHT22;40423;53.176;6.002;2023-09-08T01:42:19;18.90;99.90
54518;DHT22;40423;53.176;6.002;2023-09-08T01:44:45;18.90;99.90
54518;DHT22;40423;53.176;6.002;2023-09-08T01:47:10;18.80;99.90
54518;DHT22;40423;53.176;6.002;2023-09-08T01:49:36;18.80;99.90
54518;DHT22;40423;53.176;6.002;2023-09-08T01:52:02;18.80;99.90
54518;DHT22;40423;53.176;6.002;2023-09-08T01:54:28;18.80;99.90
54518;DHT22;40423;53.176;6.002;2023-09-08T01:56:53;18.80;99.90
54518;DHT22;40423;53.176;6.002;2023-09-08T01:59:19;18.70;99.90
54518;DHT22;40423;53.176;6.002;2023-09-08T02:01:44;18.70;99.90
54518;DHT22;40423;53.176;6.002;2023-09-08T02:04:10;18.80;99.90
54518;DHT22;40423;53.176;6.002;2023-09-08T02:06:36;18.70;99.90
54518;DHT22;40423;53.176;6.002;2023-09-08T02:09:01;18.70;99.90
54518;DHT22;40423;53.176;6.002;2023-09-08T02:11:27;18.70;99.90
54518;DHT22;40423;53.176;6.002;2023-09-08T02:13:53;18.60;99.90
54518;DHT22;40423;53.176;6.002;2023-09-08T02:16:18;18.60;99.90
54518;DHT22;40423;53.176;6.002;2023-09-08T02:18:45;18.60;99.90
54518;DHT22;40423;53.176;6.002;2023-09-08T02:21:11;18.60;99.90
54518;DHT22;40423;53.176;6.002;2023-09-08T02:23:37;18.60;99.90
54518;DHT22;40423;53.176;6.002;2023-09-08T02:26:03;18.60;99.90
54518;DHT22;40423;53.176;6.002;2023-09-08T02:28:29;18.50;99.90
54518;DHT22;40423;53.176;6.002;2023-09-08T02:30:55;18.50;99.90
54518;DHT22;40423;53.176;6.002;2023-09-08T02:33:21;18.40;99.90
54518;DHT22;40423;53.176;6.002;2023-09-08T02:35:47;18.40;99.90
54518;DHT22;40423;53.176;6.002;2023-09-08T02:38:12;18.30;99.90
54518;DHT22;40423;53.176;6.002;2023-09-08T02:40:38;18.30;99.90
54518;DHT22;40423;53.176;6.002;2023-09-08T02:43:04;18.20;99.90
54518;DHT22;40423;53.176;6.002;2023-09-08T02:45:30;18.20;99.90
54518;DHT22;40423;53.176;6.002;2023-09-08T02:47:56;18.20;99.90
54518;DHT22;40423;53.176;6.002;2023-09-08T02:50:22;18.10;99.90
54518;DHT22;40423;53.176;6.002;2023-09-08T02:52:48;18.10;99.90
54518;DHT22;40423;53.176;6.002;2023-09-08T02:55:13;18.10;99.90
54518;DHT22;40423;53.176;6.002;2023-09-08T02:57:39;18.10;99.90
54518;DHT22;40423;53.176;6.002;2023-09-08T03:00:06;18.00;99.90
54518;DHT22;40423;53.176;6.002;2023-09-08T03:02:33;18.00;99.90
54518;DHT22;40423;53.176;6.002;2023-09-08T03:04:59;18.00;99.90
54518;DHT22;40423;53.176;6.002;2023-09-08T03:07:26;18.00;99.90
54518;DHT22;40423;53.176;6.002;2023-09-08T03:09:52;18.00;99.90
54518;DHT22;40423;53.176;6.002;2023-09-08T03:12:18;17.90;99.90
54518;DHT22;40423;53.176;6.002;2023-09-08T03:14:47;17.90;99.90
54518;DHT22;40423;53.176;6.002;2023-09-08T03:17:12;17.90;99.90
54518;DHT22;40423;53.176;6.002;2023-09-08T03:19:39;17.90;99.90
54518;DHT22;40423;53.176;6.002;2023-09-08T03:22:04;17.90;99.90
54518;DHT22;40423;53.176;6.002;2023-09-08T03:24:30;17.90;99.90
54518;DHT22;40423;53.176;6.002;2023-09-08T03:26:56;17.80;99.90
54518;DHT22;40423;53.176;6.002;2023-09-08T03:29:23;17.80;99.90
54518;DHT22;40423;53.176;6.002;2023-09-08T03:31:49;17.80;99.90
54518;DHT22;40423;53.176;6.002;2023-09-08T03:34:15;17.80;99.90
54518;DHT22;40423;53.176;6.002;2023-09-08T03:36:41;17.80;99.90
54518;DHT22;40423;53.176;6.002;2023-09-08T03:39:06;17.80;99.90
54518;DHT22;40423;53.176;6.002;2023-09-08T03:41:35;17.70;99.90
54518;DHT22;40423;53.176;6.002;2023-09-08T03:44:00;17.70;99.90
54518;DHT22;40423;53.176;6.002;2023-09-08T03:46:26;17.70;99.90
54518;DHT22;40423;53.176;6.002;2023-09-08T03:48:52;17.70;99.90
54518;DHT22;40423;53.176;6.002;2023-09-08T03:51:19;17.60;99.90
54518;DHT22;40423;53.176;6.002;2023-09-08T03:53:45;17.60;99.90
54518;DHT22;40423;53.176;6.002;2023-09-08T03:56:11;17.60;99.90
54518;DHT22;40423;53.176;6.002;2023-09-08T03:58:37;17.50;99.90
54518;DHT22;40423;53.176;6.002;2023-09-08T04:01:02;17.50;99.90
54518;DHT22;40423;53.176;6.002;2023-09-08T04:03:28;17.50;99.90
54518;DHT22;40423;53.176;6.002;2023-09-08T04:05:54;17.50;99.90
54518;DHT22;40423;53.176;6.002;2023-09-08T04:08:19;17.50;99.90
54518;DHT22;40423;53.176;6.002;2023-09-08T04:10:45;17.40;99.90
54518;DHT22;40423;53.176;6.002;2023-09-08T04:13:11;17.40;99.90
54518;DHT22;40423;53.176;6.002;2023-09-08T04:15:36;17.40;99.90
54518;DHT22;40423;53.176;6.002;2023-09-08T04:18:02;17.40;99.90
54518;DHT22;40423;53.176;6.002;2023-09-08T04:20:28;17.40;99.90
54518;DHT22;40423;53.176;6.002;2023-09-08T04:22:54;17.40;99.90
54518;DHT22;40423;53.176;6.002;2023-09-08T04:25:19;17.40;99.90
54518;DHT22;40423;53.176;6.002;2023-09-08T04:27:45;17.40;99.90
54518;DHT22;40423;53.176;6.002;2023-09-08T04:30:11;17.40;99.90
54518;DHT22;40423;53.176;6.002;2023-09-08T04:32:37;17.40;99.90
54518;DHT22;40423;53.176;6.002;2023-09-08T04:35:04;17.40;99.90
54518;DHT22;40423;53.176;6.002;2023-09-08T04:37:29;17.30;99.90
54518;DHT22;40423;53.176;6.002;2023-09-08T04:39:56;17.30;99.90
54518;DHT22;40423;53.176;6.002;2023-09-08T04:42:23;17.30;99.90
54518;DHT22;40423;53.176;6.002;2023-09-08T04:44:49;17.30;99.90
54518;DHT22;40423;53.176;6.002;2023-09-08T04:47:15;17.30;99.90
54518;DHT22;40423;53.176;6.002;2023-09-08T04:49:40;17.20;99.90
54518;DHT22;40423;53.176;6.002;2023-09-08T04:52:06;17.20;99.90
54518;DHT22;40423;53.176;6.002;2023-09-08T04:54:32;17.20;99.90
54518;DHT22;40423;53.176;6.002;2023-09-08T04:56:58;17.20;99.90
54518;DHT22;40423;53.176;6.002;2023-09-08T04:59:24;17.20;99.90
54518;DHT22;40423;53.176;6.002;2023-09-08T05:01:50;17.20;99.90
54518;DHT22;40423;53.176;6.002;2023-09-08T05:04:17;17.20;99.90
54518;DHT22;40423;53.176;6.002;2023-09-08T05:06:43;17.20;99.90
54518;DHT22;40423;53.176;6.002;2023-09-08T05:09:09;17.20;99.90
54518;DHT22;40423;53.176;6.002;2023-09-08T05:11:35;17.10;99.90
54518;DHT22;40423;53.176;6.002;2023-09-08T05:14:02;17.10;99.90
54518;DHT22;40423;53.176;6.002;2023-09-08T05:16:28;17.20;99.90
54518;DHT22;40423;53.176;6.002;2023-09-08T05:19:10;17.10;99.90
54518;DHT22;40423;53.176;6.002;2023-09-08T05:21:39;17.10;99.90
54518;DHT22;40423;53.176;6.002;2023-09-08T05:24:06;17.10;99.90
54518;DHT22;40423;53.176;6.002;2023-09-08T05:26:33;17.10;99.90
54518;DHT22;40423;53.176;6.002;2023-09-08T05:28:59;17.00;99.90
54518;DHT22;40423;53.176;6.002;2023-09-08T05:31:25;17.00;99.90
54518;DHT22;40423;53.176;6.002;2023-09-08T05:33:51;17.00;99.90
54518;DHT22;40423;53.176;6.002;2023-09-08T05:36:17;17.00;99.90
54518;DHT22;40423;53.176;6.002;2023-09-08T05:38:43;17.00;99.90
54518;DHT22;40423;53.176;6.002;2023-09-08T05:41:08;17.10;99.90
54518;DHT22;40423;53.176;6.002;2023-09-08T05:43:34;17.10;99.90
54518;DHT22;40423;53.176;6.002;2023-09-08T05:46:00;17.10;99.90
54518;DHT22;40423;53.176;6.002;2023-09-08T05:48:26;17.20;99.90
54518;DHT22;40423;53.176;6.002;2023-09-08T05:50:51;17.20;99.90
54518;DHT22;40423;53.176;6.002;2023-09-08T05:53:17;17.20;99.90
54518;DHT22;40423;53.176;6.002;2023-09-08T05:55:43;17.30;99.90
54518;DHT22;40423;53.176;6.002;2023-09-08T05:58:09;17.40;99.90
54518;DHT22;40423;53.176;6.002;2023-09-08T06:00:36;17.50;99.90
54518;DHT22;40423;53.176;6.002;2023-09-08T06:03:02;17.50;99.90
54518;DHT22;40423;53.176;6.002;2023-09-08T06:05:28;17.60;99.90
54518;DHT22;40423;53.176;6.002;2023-09-08T06:07:53;17.60;99.90
54518;DHT22;40423;53.176;6.002;2023-09-08T06:10:20;17.70;99.90
54518;DHT22;40423;53.176;6.002;2023-09-08T06:12:45;17.70;99.90
54518;DHT22;40423;53.176;6.002;2023-09-08T06:15:11;17.80;99.90
54518;DHT22;40423;53.176;6.002;2023-09-08T06:17:37;17.90;99.90
54518;DHT22;40423;53.176;6.002;2023-09-08T06:20:02;17.90;99.90
54518;DHT22;40423;53.176;6.002;2023-09-08T06:22:28;18.00;99.90
54518;DHT22;40423;53.176;6.002;2023-09-08T06:24:54;18.10;99.90
54518;DHT22;40423;53.176;6.002;2023-09-08T06:27:20;18.10;99.90
54518;DHT22;40423;53.176;6.002;2023-09-08T06:29:46;18.20;99.90
54518;DHT22;40423;53.176;6.002;2023-09-08T06:32:11;18.30;99.90
54518;DHT22;40423;53.176;6.002;2023-09-08T06:34:37;18.40;99.90
54518;DHT22;40423;53.176;6.002;2023-09-08T06:37:03;18.40;99.90
54518;DHT22;40423;53.176;6.002;2023-09-08T06:39:29;18.60;99.90
54518;DHT22;40423;53.176;6.002;2023-09-08T06:41:55;18.70;99.90
54518;DHT22;40423;53.176;6.002;2023-09-08T06:44:21;18.80;99.90
54518;DHT22;40423;53.176;6.002;2023-09-08T06:46:46;18.80;99.90
54518;DHT22;40423;53.176;6.002;2023-09-08T06:49:12;18.90;99.90
54518;DHT22;40423;53.176;6.002;2023-09-08T06:51:38;19.00;99.90
54518;DHT22;40423;53.176;6.002;2023-09-08T06:54:04;19.10;99.90
54518;DHT22;40423;53.176;6.002;2023-09-08T06:56:30;19.20;99.90
54518;DHT22;40423;53.176;6.002;2023-09-08T06:58:56;19.30;99.90
54518;DHT22;40423;53.176;6.002;2023-09-08T07:01:24;19.40;99.90
54518;DHT22;40423;53.176;6.002;2023-09-08T07:03:50;19.50;99.90
54518;DHT22;40423;53.176;6.002;2023-09-08T07:06:16;19.60;99.90
54518;DHT22;40423;53.176;6.002;2023-09-08T07:08:42;19.70;99.90
54518;DHT22;40423;53.176;6.002;2023-09-08T07:11:08;19.80;99.90
54518;DHT22;40423;53.176;6.002;2023-09-08T07:13:34;19.90;99.90
54518;DHT22;40423;53.176;6.002;2023-09-08T07:16:00;20.10;99.90
54518;DHT22;40423;53.176;6.002;2023-09-08T07:18:25;20.20;99.90
54518;DHT22;40423;53.176;6.002;2023-09-08T07:20:51;20.30;99.90
54518;DHT22;40423;53.176;6.002;2023-09-08T07:23:17;20.40;99.90
54518;DHT22;40423;53.176;6.002;2023-09-08T07:25:49;20.50;99.90
54518;DHT22;40423;53.176;6.002;2023-09-08T07:28:16;20.60;99.90
54518;DHT22;40423;53.176;6.002;2023-09-08T07:30:42;20.70;99.90
54518;DHT22;40423;53.176;6.002;2023-09-08T07:33:08;20.80;99.90
54518;DHT22;40423;53.176;6.002;2023-09-08T07:35:38;20.90;99.90
54518;DHT22;40423;53.176;6.002;2023-09-08T07:38:05;21.00;99.90
54518;DHT22;40423;53.176;6.002;2023-09-08T07:40:32;21.00;99.90
54518;DHT22;40423;53.176;6.002;2023-09-08T07:42:58;21.20;99.90
54518;DHT22;40423;53.176;6.002;2023-09-08T07:45:24;21.30;99.90
54518;DHT22;40423;53.176;6.002;2023-09-08T07:47:50;21.40;99.90
54518;DHT22;40423;53.176;6.002;2023-09-08T07:50:24;21.50;99.90
54518;DHT22;40423;53.176;6.002;2023-09-08T07:52:52;21.60;99.90
54518;DHT22;40423;53.176;6.002;2023-09-08T07:55:18;21.80;99.90
54518;DHT22;40423;53.176;6.002;2023-09-08T07:57:45;21.90;99.90
54518;DHT22;40423;53.176;6.002;2023-09-08T08:00:12;21.90;99.90
54518;DHT22;40423;53.176;6.002;2023-09-08T08:02:41;22.10;99.90
54518;DHT22;40423;53.176;6.002;2023-09-08T08:05:07;22.20;99.90
54518;DHT22;40423;53.176;6.002;2023-09-08T08:07:33;22.30;99.90
54518;DHT22;40423;53.176;6.002;2023-09-08T08:09:59;22.40;99.90
54518;DHT22;40423;53.176;6.002;2023-09-08T08:12:25;22.50;99.90
54518;DHT22;40423;53.176;6.002;2023-09-08T08:14:51;22.60;99.90
54518;DHT22;40423;53.176;6.002;2023-09-08T08:17:17;22.60;99.90
54518;DHT22;40423;53.176;6.002;2023-09-08T08:19:46;22.70;99.90
54518;DHT22;40423;53.176;6.002;2023-09-08T08:22:12;22.80;99.90
54518;DHT22;40423;53.176;6.002;2023-09-08T08:24:38;23.00;99.90
54518;DHT22;40423;53.176;6.002;2023-09-08T08:27:04;23.10;99.90
54518;DHT22;40423;53.176;6.002;2023-09-08T08:29:30;23.10;99.90
54518;DHT22;40423;53.176;6.002;2023-09-08T08:31:56;23.20;99.90
54518;DHT22;40423;53.176;6.002;2023-09-08T08:34:21;23.30;99.90
54518;DHT22;40423;53.176;6.002;2023-09-08T08:36:47;23.40;99.90
54518;DHT22;40423;53.176;6.002;2023-09-08T08:39:13;23.50;99.90
54518;DHT22;40423;53.176;6.002;2023-09-08T08:44:48;23.70;99.90
54518;DHT22;40423;53.176;6.002;2023-09-08T08:47:16;23.80;99.90
54518;DHT22;40423;53.176;6.002;2023-09-08T08:49:44;23.90;99.90
54518;DHT22;40423;53.176;6.002;2023-09-08T08:52:12;24.00;99.90
54518;DHT22;40423;53.176;6.002;2023-09-08T08:54:39;24.10;99.90
54518;DHT22;40423;53.176;6.002;2023-09-08T08:57:06;24.20;99.90
54518;DHT22;40423;53.176;6.002;2023-09-08T08:59:32;24.30;99.90
54518;DHT22;40423;53.176;6.002;2023-09-08T09:02:02;24.30;99.90
54518;DHT22;40423;53.176;6.002;2023-09-08T09:04:29;24.50;99.90
54518;DHT22;40423;53.176;6.002;2023-09-08T09:06:55;24.60;99.90
54518;DHT22;40423;53.176;6.002;2023-09-08T09:09:21;24.60;99.90
54518;DHT22;40423;53.176;6.002;2023-09-08T09:11:47;24.80;99.90
54518;DHT22;40423;53.176;6.002;2023-09-08T09:14:13;24.90;99.90
54518;DHT22;40423;53.176;6.002;2023-09-08T09:16:42;25.00;99.90
54518;DHT22;40423;53.176;6.002;2023-09-08T09:19:09;25.10;99.90
54518;DHT22;40423;53.176;6.002;2023-09-08T09:21:45;25.30;99.90
54518;DHT22;40423;53.176;6.002;2023-09-08T09:24:32;25.40;99.90
54518;DHT22;40423;53.176;6.002;2023-09-08T09:26:59;25.50;99.90
54518;DHT22;40423;53.176;6.002;2023-09-08T09:29:27;25.60;99.90
54518;DHT22;40423;53.176;6.002;2023-09-08T09:34:23;25.90;99.90
54518;DHT22;40423;53.176;6.002;2023-09-08T09:36:52;26.10;99.90
54518;DHT22;40423;53.176;6.002;2023-09-08T09:39:22;26.20;99.60
54518;DHT22;40423;53.176;6.002;2023-09-08T09:41:53;26.30;98.90
54518;DHT22;40423;53.176;6.002;2023-09-08T09:44:19;26.40;99.00
54518;DHT22;40423;53.176;6.002;2023-09-08T09:46:46;26.40;98.90
54518;DHT22;40423;53.176;6.002;2023-09-08T09:49:14;26.60;99.00
54518;DHT22;40423;53.176;6.002;2023-09-08T09:51:44;26.80;98.90
54518;DHT22;40423;53.176;6.002;2023-09-08T09:54:11;26.80;98.50
54518;DHT22;40423;53.176;6.002;2023-09-08T09:56:38;26.90;98.30
54518;DHT22;40423;53.176;6.002;2023-09-08T09:59:07;27.00;98.60
54518;DHT22;40423;53.176;6.002;2023-09-08T10:01:33;27.20;98.50
54518;DHT22;40423;53.176;6.002;2023-09-08T10:04:00;27.30;98.50
54518;DHT22;40423;53.176;6.002;2023-09-08T10:06:31;27.40;97.90
54518;DHT22;40423;53.176;6.002;2023-09-08T10:08:59;27.40;97.80
54518;DHT22;40423;53.176;6.002;2023-09-08T10:11:28;27.50;97.90
54518;DHT22;40423;53.176;6.002;2023-09-08T10:13:59;27.60;97.80
54518;DHT22;40423;53.176;6.002;2023-09-08T10:16:27;27.70;97.80
54518;DHT22;40423;53.176;6.002;2023-09-08T10:18:56;27.80;97.60
54518;DHT22;40423;53.176;6.002;2023-09-08T10:21:25;27.90;97.30
54518;DHT22;40423;53.176;6.002;2023-09-08T10:24:15;27.90;97.00
54518;DHT22;40423;53.176;6.002;2023-09-08T10:26:47;28.00;97.30
54518;DHT22;40423;53.176;6.002;2023-09-08T10:29:17;28.10;97.10
54518;DHT22;40423;53.176;6.002;2023-09-08T10:31:44;28.20;96.70
54518;DHT22;40423;53.176;6.002;2023-09-08T10:34:11;28.20;96.90
54518;DHT22;40423;53.176;6.002;2023-09-08T10:36:37;28.30;96.70
54518;DHT22;40423;53.176;6.002;2023-09-08T10:39:32;28.40;96.70
54518;DHT22;40423;53.176;6.002;2023-09-08T10:47:23;28.80;96.50
54518;DHT22;40423;53.176;6.002;2023-09-08T10:49:50;28.80;96.20
54518;DHT22;40423;53.176;6.002;2023-09-08T10:52:21;28.80;96.30
54518;DHT22;40423;53.176;6.002;2023-09-08T10:54:54;28.90;96.00
54518;DHT22;40423;53.176;6.002;2023-09-08T10:57:22;29.00;96.30
54518;DHT22;40423;53.176;6.002;2023-09-08T11:00:00;29.10;96.10
54518;DHT22;40423;53.176;6.002;2023-09-08T11:02:39;29.00;95.40
54518;DHT22;40423;53.176;6.002;2023-09-08T11:05:08;29.10;95.80
54518;DHT22;40423;53.176;6.002;2023-09-08T11:07:38;29.20;95.80
54518;DHT22;40423;53.176;6.002;2023-09-08T11:10:08;29.40;95.60
54518;DHT22;40423;53.176;6.002;2023-09-08T11:12:34;29.50;95.60
54518;DHT22;40423;53.176;6.002;2023-09-08T11:15:02;29.60;95.60
54518;DHT22;40423;53.176;6.002;2023-09-08T11:17:31;29.70;95.40
54518;DHT22;40423;53.176;6.002;2023-09-08T11:19:57;29.70;95.00
54518;DHT22;40423;53.176;6.002;2023-09-08T11:22:24;29.80;94.80
54518;DHT22;40423;53.176;6.002;2023-09-08T11:24:55;29.80;94.70
54518;DHT22;40423;53.176;6.002;2023-09-08T11:27:22;29.80;94.60
54518;DHT22;40423;53.176;6.002;2023-09-08T11:29:49;29.90;94.60
54518;DHT22;40423;53.176;6.002;2023-09-08T11:32:15;30.00;94.30
54518;DHT22;40423;53.176;6.002;2023-09-08T11:34:41;30.00;94.30
54518;DHT22;40423;53.176;6.002;2023-09-08T11:37:12;30.10;94.20
54518;DHT22;40423;53.176;6.002;2023-09-08T11:39:40;30.20;94.10
54518;DHT22;40423;53.176;6.002;2023-09-08T11:42:07;30.20;94.00
54518;DHT22;40423;53.176;6.002;2023-09-08T11:44:34;30.40;93.70
54518;DHT22;40423;53.176;6.002;2023-09-08T11:47:02;30.40;93.60
54518;DHT22;40423;53.176;6.002;2023-09-08T11:49:34;30.50;93.20
54518;DHT22;40423;53.176;6.002;2023-09-08T11:52:00;30.60;93.10
54518;DHT22;40423;53.176;6.002;2023-09-08T11:54:26;30.60;93.00
54518;DHT22;40423;53.176;6.002;2023-09-08T11:56:52;30.70;93.40
54518;DHT22;40423;53.176;6.002;2023-09-08T11:59:18;30.70;93.10
54518;DHT22;40423;53.176;6.002;2023-09-08T12:01:44;30.80;93.00
54518;DHT22;40423;53.176;6.002;2023-09-08T12:04:17;31.00;93.00
54518;DHT22;40423;53.176;6.002;2023-09-08T12:06:44;31.10;93.00
54518;DHT22;40423;53.176;6.002;2023-09-08T12:09:10;31.20;92.80
54518;DHT22;40423;53.176;6.002;2023-09-08T12:11:37;31.30;92.80
54518;DHT22;40423;53.176;6.002;2023-09-08T12:14:08;31.20;92.40
54518;DHT22;40423;53.176;6.002;2023-09-08T12:16:35;31.30;92.60
54518;DHT22;40423;53.176;6.002;2023-09-08T12:19:00;31.40;92.30
54518;DHT22;40423;53.176;6.002;2023-09-08T12:21:26;31.50;91.90
54518;DHT22;40423;53.176;6.002;2023-09-08T12:23:53;31.50;92.00
54518;DHT22;40423;53.176;6.002;2023-09-08T12:26:20;31.60;91.70
54518;DHT22;40423;53.176;6.002;2023-09-08T12:28:46;31.60;91.60
54518;DHT22;40423;53.176;6.002;2023-09-08T12:31:17;31.70;91.70
54518;DHT22;40423;53.176;6.002;2023-09-08T12:33:43;31.80;91.50
54518;DHT22;40423;53.176;6.002;2023-09-08T12:36:17;31.90;91.30
54518;DHT22;40423;53.176;6.002;2023-09-08T12:38:53;32.00;91.00
54518;DHT22;40423;53.176;6.002;2023-09-08T12:41:19;32.10;90.70
54518;DHT22;40423;53.176;6.002;2023-09-08T12:43:45;32.00;90.60
54518;DHT22;40423;53.176;6.002;2023-09-08T12:46:11;32.10;90.60
54518;DHT22;40423;53.176;6.002;2023-09-08T12:48:37;32.20;90.30
54518;DHT22;40423;53.176;6.002;2023-09-08T12:51:03;32.30;90.70
54518;DHT22;40423;53.176;6.002;2023-09-08T12:53:35;32.40;90.40
54518;DHT22;40423;53.176;6.002;2023-09-08T12:56:01;32.50;90.10
54518;DHT22;40423;53.176;6.002;2023-09-08T12:58:28;32.50;90.50
54518;DHT22;40423;53.176;6.002;2023-09-08T13:00:54;32.60;90.50
54518;DHT22;40423;53.176;6.002;2023-09-08T13:03:20;32.80;90.10
54518;DHT22;40423;53.176;6.002;2023-09-08T13:05:45;32.70;89.20
54518;DHT22;40423;53.176;6.002;2023-09-08T13:08:11;32.60;88.20
54518;DHT22;40423;53.176;6.002;2023-09-08T13:10:37;32.60;88.80
54518;DHT22;40423;53.176;6.002;2023-09-08T13:13:03;32.70;89.70
54518;DHT22;40423;53.176;6.002;2023-09-08T13:15:29;32.80;89.50
54518;DHT22;40423;53.176;6.002;2023-09-08T13:17:56;32.90;88.50
54518;DHT22;40423;53.176;6.002;2023-09-08T13:20:22;33.00;87.50
54518;DHT22;40423;53.176;6.002;2023-09-08T13:22:47;33.00;87.00
54518;DHT22;40423;53.176;6.002;2023-09-08T13:25:13;33.00;86.00
54518;DHT22;40423;53.176;6.002;2023-09-08T13:27:42;33.00;86.50
54518;DHT22;40423;53.176;6.002;2023-09-08T13:30:09;33.00;86.00
54518;DHT22;40423;53.176;6.002;2023-09-08T13:32:35;33.10;86.50
54518;DHT22;40423;53.176;6.002;2023-09-08T13:35:01;33.10;86.40
54518;DHT22;40423;53.176;6.002;2023-09-08T13:37:28;33.10;86.60
54518;DHT22;40423;53.176;6.002;2023-09-08T13:39:54;33.20;86.60
54518;DHT22;40423;53.176;6.002;2023-09-08T13:42:20;33.20;85.90
54518;DHT22;40423;53.176;6.002;2023-09-08T13:44:46;33.10;85.30
54518;DHT22;40423;53.176;6.002;2023-09-08T13:47:11;33.00;86.20
54518;DHT22;40423;53.176;6.002;2023-09-08T13:49:37;33.00;85.40
54518;DHT22;40423;53.176;6.002;2023-09-08T13:52:03;32.80;85.00
54518;DHT22;40423;53.176;6.002;2023-09-08T13:54:28;32.80;85.80
54518;DHT22;40423;53.176;6.002;2023-09-08T13:57:00;32.80;86.10
54518;DHT22;40423;53.176;6.002;2023-09-08T13:59:27;32.80;85.40
54518;DHT22;40423;53.176;6.002;2023-09-08T14:01:53;32.80;85.90
54518;DHT22;40423;53.176;6.002;2023-09-08T14:04:19;32.70;86.30
54518;DHT22;40423;53.176;6.002;2023-09-08T14:06:45;32.70;85.50
54518;DHT22;40423;53.176;6.002;2023-09-08T14:09:11;32.70;85.70
54518;DHT22;40423;53.176;6.002;2023-09-08T14:11:36;32.60;85.70
54518;DHT22;40423;53.176;6.002;2023-09-08T14:14:02;32.50;85.60
54518;DHT22;40423;53.176;6.002;2023-09-08T14:16:29;32.40;85.40
54518;DHT22;40423;53.176;6.002;2023-09-08T14:18:54;32.20;85.70
54518;DHT22;40423;53.176;6.002;2023-09-08T14:21:20;32.00;85.90
54518;DHT22;40423;53.176;6.002;2023-09-08T14:23:46;31.80;85.80
54518;DHT22;40423;53.176;6.002;2023-09-08T14:26:12;31.70;85.90
54518;DHT22;40423;53.176;6.002;2023-09-08T14:28:38;31.60;85.90
54518;DHT22;40423;53.176;6.002;2023-09-08T14:31:03;31.50;86.10
54518;DHT22;40423;53.176;6.002;2023-09-08T14:33:29;31.40;85.90
54518;DHT22;40423;53.176;6.002;2023-09-08T14:35:55;31.30;86.10
54518;DHT22;40423;53.176;6.002;2023-09-08T14:38:22;31.10;86.20
54518;DHT22;40423;53.176;6.002;2023-09-08T14:40:58;31.10;86.60
54518;DHT22;40423;53.176;6.002;2023-09-08T14:43:25;30.90;87.00
54518;DHT22;40423;53.176;6.002;2023-09-08T14:45:51;30.80;87.00
54518;DHT22;40423;53.176;6.002;2023-09-08T14:48:17;30.70;87.40
54518;DHT22;40423;53.176;6.002;2023-09-08T14:50:43;30.60;87.30
54518;DHT22;40423;53.176;6.002;2023-09-08T14:53:09;30.50;87.90
54518;DHT22;40423;53.176;6.002;2023-09-08T14:55:35;30.40;87.40
54518;DHT22;40423;53.176;6.002;2023-09-08T14:58:01;30.40;87.80
54518;DHT22;40423;53.176;6.002;2023-09-08T15:00:27;30.40;88.30
54518;DHT22;40423;53.176;6.002;2023-09-08T15:02:53;30.30;88.40
54518;DHT22;40423;53.176;6.002;2023-09-08T15:05:19;30.30;89.20
54518;DHT22;40423;53.176;6.002;2023-09-08T15:07:44;30.20;89.10
54518;DHT22;40423;53.176;6.002;2023-09-08T15:10:10;30.10;89.00
54518;DHT22;40423;53.176;6.002;2023-09-08T15:12:36;30.10;89.10
54518;DHT22;40423;53.176;6.002;2023-09-08T15:15:02;30.00;89.20
54518;DHT22;40423;53.176;6.002;2023-09-08T15:17:29;29.90;89.60
54518;DHT22;40423;53.176;6.002;2023-09-08T15:19:55;29.90;89.90
54518;DHT22;40423;53.176;6.002;2023-09-08T15:22:20;29.90;90.00
54518;DHT22;40423;53.176;6.002;2023-09-08T15:24:46;29.80;90.00
54518;DHT22;40423;53.176;6.002;2023-09-08T15:27:12;29.80;90.10
54518;DHT22;40423;53.176;6.002;2023-09-08T15:29:38;29.70;90.10
54518;DHT22;40423;53.176;6.002;2023-09-08T15:32:04;29.70;90.30
54518;DHT22;40423;53.176;6.002;2023-09-08T15:34:31;29.70;90.20
54518;DHT22;40423;53.176;6.002;2023-09-08T15:36:57;29.60;90.20
54518;DHT22;40423;53.176;6.002;2023-09-08T15:39:23;29.60;90.30
54518;DHT22;40423;53.176;6.002;2023-09-08T15:41:49;29.50;90.20
54518;DHT22;40423;53.176;6.002;2023-09-08T15:44:15;29.50;90.40